createdAt,value
2019-01-08T00:04:06.383Z,5.70
2019-01-08T00:08:24.703Z,5.70
2019-01-08T00:12:43.459Z,5.70
2019-01-08T00:17:02.133Z,5.70
2019-01-08T00:21:20.326Z,5.70
2019-01-08T00:25:39.116Z,5.70
2019-01-08T00:29:57.263Z,5.70
2019-01-08T00:34:15.669Z,5.70
2019-01-08T00:38:33.866Z,5.70
2019-01-08T00:42:52.014Z,5.80
2019-01-08T00:47:10.539Z,5.80
2019-01-08T00:51:29.072Z,5.80
2019-01-08T00:55:47.657Z,5.80
2019-01-08T01:00:06.530Z,5.80
2019-01-08T01:04:25.511Z,5.80
2019-01-08T01:08:43.940Z,5.80
2019-01-08T01:13:02.398Z,5.80
2019-01-08T01:17:20.901Z,5.80
2019-01-08T01:21:39.175Z,5.80
2019-01-08T01:25:57.610Z,5.90
2019-01-08T01:30:15.731Z,5.90
2019-01-08T01:34:33.879Z,5.90
2019-01-08T01:38:52.393Z,5.90
2019-01-08T01:43:10.501Z,5.90
2019-01-08T01:47:28.691Z,5.90
2019-01-08T01:51:47.232Z,5.90
2019-01-08T01:56:05.695Z,5.90
2019-01-08T02:00:23.886Z,5.90
2019-01-08T02:04:42.303Z,5.90
2019-01-08T02:09:00.476Z,5.90
2019-01-08T02:13:18.823Z,5.90
2019-01-08T02:17:36.848Z,5.90
2019-01-08T02:21:55.538Z,5.90
2019-01-08T02:26:15.460Z,6.00
2019-01-08T02:30:33.430Z,6.00
2019-01-08T02:34:51.554Z,6.00
2019-01-08T02:39:09.876Z,6.10
2019-01-08T02:43:28.013Z,6.10
2019-01-08T02:47:46.196Z,6.10
2019-01-08T02:52:04.639Z,6.10
2019-01-08T02:56:23.111Z,6.00
2019-01-08T03:00:41.352Z,6.00
2019-01-08T03:04:59.813Z,6.00
2019-01-08T03:09:18.093Z,6.10
2019-01-08T03:13:36.631Z,6.10
2019-01-08T03:17:55.010Z,6.10
2019-01-08T03:22:13.081Z,6.10
2019-01-08T03:26:31.259Z,6.20
2019-01-08T03:30:49.375Z,6.10
2019-01-08T03:35:07.575Z,6.10
2019-01-08T03:39:25.789Z,6.20
2019-01-08T03:43:44.328Z,6.20
2019-01-08T03:48:02.613Z,6.20
2019-01-08T03:52:20.681Z,6.20
2019-01-08T03:56:39.096Z,6.20
2019-01-08T04:00:57.505Z,6.20
2019-01-08T04:05:15.646Z,6.20
2019-01-08T04:09:33.877Z,6.20
2019-01-08T04:13:51.856Z,6.20
2019-01-08T04:18:11.672Z,6.20
2019-01-08T04:22:31.360Z,6.20
2019-01-08T04:26:49.615Z,6.20
2019-01-08T04:31:07.907Z,6.10
2019-01-08T04:35:27.891Z,6.10
2019-01-08T04:39:47.751Z,6.10
2019-01-08T04:44:05.953Z,6.10
2019-01-08T04:48:26.238Z,6.10
2019-01-08T04:52:44.696Z,6.10
2019-01-08T04:57:02.995Z,6.10
2019-01-08T05:01:21.625Z,6.20
2019-01-08T05:05:40.109Z,6.20
2019-01-08T05:09:59.241Z,6.20
2019-01-08T05:14:17.721Z,6.20
2019-01-08T05:18:35.917Z,6.20
2019-01-08T05:22:56.341Z,6.20
2019-01-08T05:27:14.424Z,6.20
2019-01-08T05:31:32.916Z,6.20
2019-01-08T05:35:53.727Z,6.20
2019-01-08T05:40:12.756Z,6.20
2019-01-08T05:44:31.226Z,6.20
2019-01-08T05:48:49.563Z,6.20
2019-01-08T05:53:11.633Z,6.10
2019-01-08T05:57:29.890Z,6.20
2019-01-08T06:01:48.363Z,6.20
2019-01-08T06:06:06.424Z,6.20
2019-01-08T06:10:24.565Z,6.20
2019-01-08T06:14:42.959Z,6.20
2019-01-08T06:19:02.400Z,6.20
2019-01-08T06:23:20.492Z,6.20
2019-01-08T06:27:38.848Z,6.20
2019-01-08T06:31:58.081Z,6.20
2019-01-08T06:36:16.161Z,6.20
2019-01-08T06:40:34.427Z,6.20
2019-01-08T06:44:52.575Z,6.20
2019-01-08T06:49:10.623Z,6.20
2019-01-08T06:53:28.790Z,6.20
2019-01-08T06:57:47.416Z,6.20
2019-01-08T07:02:05.775Z,6.20
2019-01-08T07:06:24.647Z,6.20
2019-01-08T07:10:42.778Z,6.20
2019-01-08T07:15:02.358Z,6.30
2019-01-08T07:19:20.896Z,6.30
2019-01-08T07:23:39.068Z,6.30
2019-01-08T07:27:57.324Z,6.40
2019-01-08T07:32:15.648Z,6.40
2019-01-08T07:36:34.702Z,6.40
2019-01-08T07:40:53.124Z,6.50
2019-01-08T07:45:11.331Z,6.50
2019-01-08T07:49:29.754Z,6.50
2019-01-08T07:53:47.966Z,6.60
2019-01-08T07:58:06.683Z,6.60
2019-01-08T08:02:24.917Z,6.60
2019-01-08T08:06:43.056Z,6.70
2019-01-08T08:11:01.138Z,6.70
2019-01-08T08:15:19.918Z,6.70
2019-01-08T08:19:38.031Z,6.80
2019-01-08T08:23:56.413Z,6.80
2019-01-08T08:28:14.445Z,6.90
2019-01-08T08:32:32.418Z,6.90
2019-01-08T08:36:50.416Z,7.00
2019-01-08T08:41:08.645Z,7.00
2019-01-08T08:45:27.163Z,7.00
2019-01-08T08:49:45.541Z,7.10
2019-01-08T08:54:03.749Z,7.10
2019-01-08T08:58:21.776Z,7.10
2019-01-08T09:02:39.800Z,7.20
2019-01-08T09:06:57.732Z,7.20
2019-01-08T09:11:16.046Z,7.20
2019-01-08T09:15:33.967Z,7.20
2019-01-08T09:19:52.215Z,7.30
2019-01-08T09:24:10.203Z,7.30
2019-01-08T09:28:28.154Z,7.30
2019-01-08T09:32:46.123Z,7.30
2019-01-08T09:37:04.215Z,7.20
2019-01-08T09:41:22.562Z,7.20
2019-01-08T09:45:40.586Z,7.20
2019-01-08T09:49:59.316Z,7.20
2019-01-08T09:54:17.322Z,7.20
2019-01-08T09:58:35.307Z,7.30
2019-01-08T10:02:53.302Z,7.40
2019-01-08T10:07:11.300Z,7.40
2019-01-08T10:11:30.592Z,7.50
2019-01-08T10:15:50.148Z,7.60
2019-01-08T10:20:10.130Z,7.60
2019-01-08T10:24:29.377Z,7.60
2019-01-08T10:28:49.514Z,7.70
2019-01-08T10:33:09.106Z,7.70
2019-01-08T10:37:29.091Z,7.70
2019-01-08T10:41:49.307Z,7.80
2019-01-08T10:46:09.102Z,7.90
2019-01-08T10:50:28.430Z,8.00
2019-01-08T10:54:48.364Z,8.20
2019-01-08T10:59:07.966Z,8.60
2019-01-08T11:03:27.279Z,9.10
2019-01-08T11:07:46.556Z,9.30
2019-01-08T11:12:05.847Z,9.60
2019-01-08T11:16:25.715Z,9.80
2019-01-08T11:20:44.978Z,10.00
2019-01-08T11:25:04.555Z,10.00
2019-01-08T11:29:24.418Z,10.00
2019-01-08T11:33:44.041Z,9.80
2019-01-08T11:38:03.570Z,9.70
2019-01-08T11:42:22.877Z,9.60
2019-01-08T11:46:42.499Z,9.50
2019-01-08T11:51:02.076Z,9.50
2019-01-08T11:55:21.654Z,9.50
2019-01-08T11:59:41.235Z,9.50
2019-01-08T12:04:00.576Z,9.40
2019-01-08T12:08:20.215Z,9.30
2019-01-08T12:12:39.986Z,9.20
2019-01-08T12:17:00.089Z,9.20
2019-01-08T12:21:19.693Z,9.10
2019-01-08T12:25:38.973Z,9.10
2019-01-08T12:29:58.224Z,9.10
2019-01-08T12:34:17.573Z,9.10
2019-01-08T12:38:36.766Z,9.10
2019-01-08T12:42:56.345Z,9.10
2019-01-08T12:47:16.292Z,9.00
2019-01-08T12:51:35.872Z,9.00
2019-01-08T12:55:55.472Z,8.90
2019-01-08T13:00:17.097Z,8.90
2019-01-08T13:04:36.392Z,9.00
2019-01-08T13:08:55.667Z,9.00
2019-01-08T13:13:15.239Z,9.00
2019-01-08T13:17:34.430Z,9.00
2019-01-08T13:21:54.200Z,9.00
2019-01-08T13:26:13.470Z,9.00
2019-01-08T13:30:33.108Z,8.90
2019-01-08T13:34:52.874Z,8.90
2019-01-08T13:39:12.217Z,8.80
2019-01-08T13:43:31.530Z,8.70
2019-01-08T13:47:51.139Z,8.60
2019-01-08T13:52:10.578Z,8.60
2019-01-08T13:56:29.965Z,8.50
2019-01-08T14:00:49.192Z,8.50
2019-01-08T14:05:09.065Z,8.40
2019-01-08T14:09:28.796Z,8.40
2019-01-08T14:13:48.821Z,8.40
2019-01-08T14:18:08.488Z,8.40
2019-01-08T14:22:28.418Z,8.40
2019-01-08T14:26:47.746Z,8.40
2019-01-08T14:31:07.283Z,8.40
2019-01-08T14:35:26.582Z,8.40
2019-01-08T14:39:45.322Z,8.30
2019-01-08T14:44:04.924Z,8.30
2019-01-08T14:48:24.509Z,8.20
2019-01-08T14:52:44.099Z,8.20
2019-01-08T14:57:03.423Z,8.10
2019-01-08T15:01:22.925Z,8.10
2019-01-08T15:05:42.207Z,8.10
2019-01-08T15:10:03.567Z,8.00
2019-01-08T15:14:22.492Z,8.00
2019-01-08T15:18:41.801Z,8.00
2019-01-08T15:23:01.432Z,7.90
2019-01-08T15:27:20.929Z,7.90
2019-01-08T15:31:40.199Z,7.90
2019-01-08T15:35:59.442Z,7.90
2019-01-08T15:40:18.924Z,7.80
2019-01-08T15:44:38.943Z,7.80
2019-01-08T15:48:58.204Z,7.80
2019-01-08T15:53:17.664Z,7.80
2019-01-08T15:57:36.973Z,7.70
2019-01-08T16:01:56.322Z,7.70
2019-01-08T16:06:15.935Z,7.70
2019-01-08T16:10:35.219Z,7.70
2019-01-08T16:14:54.528Z,7.70
2019-01-08T16:19:14.283Z,7.60
2019-01-08T16:23:33.598Z,7.60
2019-01-08T16:27:53.852Z,7.60
2019-01-08T16:32:13.248Z,7.60
2019-01-08T16:36:32.500Z,7.60
2019-01-08T16:40:51.779Z,7.60
2019-01-08T16:45:11.064Z,7.60
2019-01-08T16:49:30.425Z,7.60
2019-01-08T16:53:49.757Z,7.60
2019-01-08T16:58:09.363Z,7.60
2019-01-08T17:02:30.566Z,7.50
2019-01-08T17:06:50.046Z,7.50
2019-01-08T17:11:09.649Z,7.40
2019-01-08T17:15:28.895Z,7.40
2019-01-08T17:19:48.537Z,7.40
2019-01-08T17:24:07.821Z,7.50
2019-01-08T17:28:27.087Z,7.50
2019-01-08T17:32:46.750Z,7.50
2019-01-08T17:37:06.093Z,7.50
2019-01-08T17:41:25.724Z,7.50
2019-01-08T17:45:45.022Z,7.50
2019-01-08T17:50:04.322Z,7.50
2019-01-08T17:54:25.234Z,7.50
2019-01-08T17:58:51.432Z,7.50
2019-01-08T18:03:10.785Z,7.50
2019-01-08T18:07:30.027Z,7.50
2019-01-08T18:11:49.242Z,7.50
2019-01-08T18:16:08.706Z,7.50
2019-01-08T18:20:28.347Z,7.40
2019-01-08T18:24:47.770Z,7.40
2019-01-08T18:29:07.113Z,7.40
2019-01-08T18:33:25.017Z,7.40
2019-01-08T18:37:44.332Z,7.30
2019-01-08T18:42:04.094Z,7.30
2019-01-08T18:46:23.667Z,7.40
2019-01-08T18:50:43.098Z,7.40
2019-01-08T18:55:02.434Z,7.40
2019-01-08T18:59:21.804Z,7.40
2019-01-08T19:03:41.544Z,7.40
2019-01-08T19:08:10.495Z,7.40
2019-01-08T19:12:30.732Z,7.40
2019-01-08T19:16:50.503Z,7.30
2019-01-08T19:21:11.227Z,7.30
2019-01-08T19:25:30.983Z,7.30
2019-01-08T19:29:50.319Z,7.30
2019-01-08T19:34:09.723Z,7.30
2019-01-08T19:38:29.090Z,7.30
2019-01-08T19:42:49.454Z,7.30
2019-01-08T19:47:09.194Z,7.40
2019-01-08T19:51:29.602Z,7.40
2019-01-08T19:55:49.150Z,7.40
2019-01-08T20:00:11.523Z,7.40
2019-01-08T20:04:31.277Z,7.40
2019-01-08T20:08:50.551Z,7.30
2019-01-08T20:13:09.861Z,7.30
2019-01-08T20:17:31.016Z,7.30
2019-01-08T20:21:50.948Z,7.40
2019-01-08T20:26:10.708Z,7.40
2019-01-08T20:30:30.397Z,7.40
2019-01-08T20:34:49.977Z,7.40
2019-01-08T20:39:13.675Z,7.40
2019-01-08T20:43:32.949Z,7.40
2019-01-08T20:47:52.642Z,7.40
2019-01-08T20:52:12.218Z,7.40
2019-01-08T20:56:31.699Z,7.40
2019-01-08T21:00:51.279Z,7.40
2019-01-08T21:05:10.974Z,7.30
2019-01-08T21:09:30.879Z,7.30
2019-01-08T21:13:50.191Z,7.30
2019-01-08T21:18:09.369Z,7.30
2019-01-08T21:22:29.220Z,7.30
2019-01-08T21:26:48.663Z,7.20
2019-01-08T21:31:07.943Z,7.20
2019-01-08T21:35:27.577Z,7.20
2019-01-08T21:39:47.160Z,7.10
2019-01-08T21:44:06.852Z,7.10
2019-01-08T21:48:26.334Z,7.10
2019-01-08T21:52:46.434Z,7.00
2019-01-08T21:57:05.731Z,7.00
2019-01-08T22:01:26.323Z,7.00
2019-01-08T22:05:46.719Z,7.00
2019-01-08T22:10:06.412Z,7.00
2019-01-08T22:14:25.995Z,7.00
2019-01-08T22:18:45.307Z,7.00
2019-01-08T22:23:04.831Z,7.00
2019-01-08T22:27:24.199Z,7.00
2019-01-08T22:31:43.519Z,6.90
2019-01-08T22:36:03.165Z,7.00
2019-01-08T22:40:23.017Z,6.90
2019-01-08T22:44:42.326Z,6.90
2019-01-08T22:49:02.174Z,6.90
2019-01-08T22:53:21.420Z,6.80
2019-01-08T22:57:41.158Z,6.80
2019-01-08T23:02:01.212Z,6.80
2019-01-08T23:06:20.466Z,6.80
2019-01-08T23:10:41.443Z,6.80
2019-01-08T23:15:00.728Z,6.80
2019-01-08T23:19:20.084Z,6.80
2019-01-08T23:23:39.689Z,6.80
2019-01-08T23:27:59.498Z,6.80
2019-01-08T23:32:18.772Z,6.80
2019-01-08T23:36:37.961Z,6.80
2019-01-08T23:40:57.310Z,6.80
2019-01-08T23:45:16.917Z,6.80
2019-01-08T23:49:36.171Z,6.80
2019-01-08T23:53:56.607Z,6.80
2019-01-08T23:58:16.282Z,6.80
